• Join FlightAware (Why Join?)
  • Login
  • US Flag 
12:52PM EDT


 

Airport Tracker/Info


-or-


 

Live Flight TrackerFlight Track Log ✈ SWA208 ✈ 20-Nov-2013 ✈ KSFO - KLAX

Flight Track Log - Related Links

Times and Time Zones

All times are in EST time to prevent confusion due to time zone crossing. See the SWA208 flight status page for this flight to view local times or setup timezone preferences in your user account.

Time Position Orientation Groundspeed Altitude Reporting Facility
EST Latitude Longitude Course Direction KTS MPH feet Rate Location/Type
01:20AM 37.6500 -122.3667 228° Southwest 172 198 2,000  Level Northern Cal TRACON
01:21AM 37.6667 -122.4167 293° West 243 280 6,700 4,260 Climbing Northern Cal TRACON
01:22AM 37.5833 -122.4333 189° South 290 334 10,600 3,960 Climbing Northern Cal TRACON
01:23AM 37.5000 -122.4500 189° South 342 394 14,700 3,600 Climbing Northern Cal TRACON
01:24AM 37.4333 -122.3500 130° Southeast 398 458 17,900 1,920 Climbing Northern Cal TRACON
01:25AM 37.2466 -121.9492 228° Southwest  Level Estimated
01:25AM 37.3478 -122.2306 132° Southeast 406 467 19,000  Level Oakland Center
01:26AM 37.2681 -122.1247 133° Southeast 415 478 21,900 2,580 Climbing Oakland Center
01:27AM 37.1858 -122.0119 132° Southeast 434 499 24,300 2,280 Climbing Oakland Center
01:28AM 37.0950 -121.8892 133° Southeast 474 545 26,500 2,460 Climbing Oakland Center
01:29AM 36.9769 -121.7381 134° Southeast 507 583 29,300 2,400 Climbing Oakland Center
01:30AM 36.8797 -121.6058 133° Southeast 516 594 31,400 2,040 Climbing Oakland Center
01:31AM 36.7742 -121.4625 133° Southeast 537 618 33,500 2,340 Climbing Oakland Center
01:32AM 36.6750 -121.3261 132° Southeast 531 611 36,200 1,680 Climbing Oakland Center
01:33AM 36.5753 -121.1958 134° Southeast 522 601 37,000 360 Climbing Oakland Center
01:34AM 36.4764 -121.0642 133° Southeast 521 600 37,000  Level Oakland Center
01:35AM 36.3772 -120.9336 133° Southeast 519 597 37,000  Level Oakland Center
01:36AM 36.2792 -120.8019 133° Southeast 520 598 37,000  Level Oakland Center
01:37AM 36.1806 -120.6717 133° Southeast 519 597 37,000  Level Oakland Center
01:38AM 36.0817 -120.5419 133° Southeast 518 596 37,000  Level Oakland Center
01:39AM 35.9817 -120.4119 134° Southeast 520 598 37,000  Level Oakland Center
01:40AM 35.8822 -120.2825 133° Southeast 518 596 37,000  Level Oakland Center
01:41AM 35.7822 -120.1525 133° Southeast 518 596 37,000  Level Oakland Center
01:42AM 35.6819 -120.0242 134° Southeast 517 595 37,000  Level Oakland Center
01:43AM 35.5706 -119.9114 141° Southeast 513 590 37,000  Level Oakland Center
01:44AM 35.4533 -119.8131 146° Southeast 507 583 37,000  Level Los Angeles Center
01:45AM 35.3386 -119.7131 145° Southeast 505 581 37,000  Level Los Angeles Center
01:46AM 35.2233 -119.6133 145° Southeast 504 580 37,000 -300 Level Los Angeles Center
01:47AM 35.1075 -119.5153 145° Southeast 505 581 36,400 -960 Descending Los Angeles Center
01:48AM 34.9908 -119.4139 145° Southeast 512 589 35,100 -2,640 Descending Los Angeles Center
01:49AM 34.8714 -119.3117 145° Southeast 519 597 31,100 -3,720 Descending Los Angeles Center
01:50AM 34.7497 -119.2094 145° Southeast 528 608 27,600 -3,300 Descending Los Angeles Center
01:51AM 34.6325 -119.1125 146° Southeast 506 582 24,500 -3,120 Descending Los Angeles Center
01:52AM 34.5244 -119.0183 144° Southeast 487 560 21,400 -3,300 Descending Los Angeles Center
01:53AM 34.3992 -118.9183 147° Southeast 450 518 17,900 -3,180 Descending Los Angeles Center
01:54AM 34.2978 -118.8592 154° Southeast 409 471 15,000 -2,760 Descending Los Angeles Center
01:55AM 34.1956 -118.8214 163° South 387 445 12,400 -1,800 Descending Los Angeles Center
01:56AM 34.1014 -118.7869 163° South 359 413 11,400 -1,200 Descending Los Angeles Center
01:57AM 34.0353 -118.7167 139° Southeast 327 376 10,000 -1,020 Descending Los Angeles Center
01:58AM 34.0247 -118.6122 97° East 315 362 9,400 -1,080 Descending Los Angeles Center
01:59AM 34.0150 -118.5117 97° East 302 348 7,900 -1,500 Descending Los Angeles Center
02:00AM 34.0142 -118.4175 91° East 292 336 6,400 -1,800 Descending Los Angeles Center
02:01AM 34.0275 -118.3228 80° East 286 329 4,300 -1,740 Descending Los Angeles Center
02:02AM 34.0392 -118.2350 81° East 274 315 2,900 -900 Descending Los Angeles Center
02:03AM 34.0108 -118.1947 130° Southeast 231 266 2,600 -360 Descending Los Angeles Center
02:04AM 33.9772 -118.2344 224° Southwest 185 213 2,200 -360 Descending Los Angeles Center
02:05AM 33.9639 -118.2922 254° West 185 213 1,900 -600 Descending Los Angeles Center
02:06AM 33.9583 -118.3456 263° West 173 199 1,100 -780 Descending Los Angeles Center
02:07AM 33.9542 -118.3922 264° West 156 180 400 -720 Descending Los Angeles Center
02:09AM 33.9333 -118.4000 228° Southwest  Level FlightAware Approximate
02:16AM 33.9425 -118.4081 228° Southwest  Level Estimated